createdAt,value
2022-08-12T00:07:14.045Z,102324.84
2022-08-12T00:17:15.578Z,102304.00
2022-08-12T00:27:17.532Z,102309.72
2022-08-12T00:37:20.836Z,102309.91
2022-08-12T00:47:25.583Z,102316.16
2022-08-12T00:57:30.335Z,102307.66
2022-08-12T01:07:33.993Z,102305.22
2022-08-12T01:17:35.882Z,102302.91
2022-08-12T01:27:39.867Z,102301.59
2022-08-12T01:37:59.311Z,102299.09
2022-08-12T01:48:19.376Z,102301.50
2022-08-12T01:58:38.394Z,102298.47
2022-08-12T02:09:01.341Z,102296.31
2022-08-12T02:19:13.120Z,102288.84
2022-08-12T02:29:24.111Z,102288.34
2022-08-12T02:39:25.793Z,102286.31
2022-08-12T02:49:34.485Z,102273.69
2022-08-12T02:59:36.151Z,102278.00
2022-08-12T03:10:04.584Z,102276.41
2022-08-12T03:20:10.274Z,102276.00
2022-08-12T03:30:13.250Z,102257.41
2022-08-12T03:40:14.746Z,102263.72
2022-08-12T03:50:17.468Z,102263.50
2022-08-12T04:00:24.278Z,102256.53
2022-08-12T04:10:29.951Z,102272.81
2022-08-12T04:20:31.837Z,102260.13
2022-08-12T04:30:34.511Z,102267.19
2022-08-12T04:40:35.929Z,102266.72
2022-08-12T04:50:37.986Z,102257.56
2022-08-12T05:00:39.529Z,102254.97
2022-08-12T05:10:42.465Z,102254.28
2022-08-12T05:20:44.077Z,102258.59
2022-08-12T05:30:46.330Z,102271.69
2022-08-12T05:40:47.879Z,102266.94
2022-08-12T05:50:49.341Z,102251.81
2022-08-12T06:00:50.747Z,102254.50
2022-08-12T06:10:52.840Z,102264.91
2022-08-12T06:20:54.300Z,102264.88
2022-08-12T06:31:22.581Z,102256.44
2022-08-12T06:41:18.158Z,102259.53
2022-08-12T06:51:19.611Z,102265.22
2022-08-12T07:01:21.240Z,102264.47
2022-08-12T07:11:22.750Z,102263.69
2022-08-12T07:21:24.163Z,102262.91
2022-08-12T07:31:45.589Z,102259.88
2022-08-12T07:41:47.012Z,102266.75
2022-08-12T07:51:48.442Z,102273.22
2022-08-12T08:01:49.949Z,102278.72
2022-08-12T08:11:52.941Z,102269.44
2022-08-12T08:21:56.088Z,102261.41
2022-08-12T08:31:57.501Z,102266.19
2022-08-12T08:42:17.157Z,102268.28
2022-08-12T08:52:39.238Z,102261.72
2022-08-12T09:02:42.195Z,102263.31
2022-08-12T09:12:54.137Z,102264.91
2022-08-12T09:22:58.825Z,102249.13
2022-08-12T09:33:04.680Z,102258.59
2022-08-12T09:43:18.782Z,102258.75
2022-08-12T09:53:35.832Z,102257.66
2022-08-12T10:04:02.922Z,102233.28
2022-08-12T10:14:01.597Z,102219.53
2022-08-12T10:24:10.011Z,102218.09
2022-08-12T10:34:25.853Z,102194.91
2022-08-12T10:44:28.266Z,102184.97
2022-08-12T10:54:33.019Z,102175.06
2022-08-12T11:04:44.986Z,102170.16
2022-08-12T11:14:51.649Z,102163.97
2022-08-12T11:24:55.411Z,102156.50
2022-08-12T11:34:59.377Z,102148.34
2022-08-12T11:45:00.906Z,102140.84
2022-08-12T11:55:02.444Z,102134.91
2022-08-12T12:05:04.223Z,102124.84
2022-08-12T12:15:06.950Z,102124.28
2022-08-12T12:25:12.906Z,102114.28
2022-08-12T12:36:06.303Z,102104.06
2022-08-12T12:45:37.892Z,102095.13
2022-08-12T12:55:40.627Z,102085.31
2022-08-12T13:05:42.842Z,102084.41
2022-08-12T13:15:49.056Z,102073.75
2022-08-12T13:25:50.578Z,102068.94
2022-08-12T13:36:05.843Z,102067.84
2022-08-12T13:46:13.807Z,102072.22
2022-08-12T13:56:15.242Z,102055.59
2022-08-12T14:06:16.936Z,102053.38
2022-08-12T14:16:46.949Z,102049.91
2022-08-12T14:26:40.378Z,102036.03
2022-08-12T14:36:42.368Z,102041.38
2022-08-12T14:46:43.786Z,102033.38
2022-08-12T14:57:19.106Z,102017.47
2022-08-12T15:07:09.779Z,102015.81
2022-08-12T15:17:52.431Z,102012.28
2022-08-12T15:28:05.766Z,102000.53
2022-08-12T15:38:17.247Z,101995.88
2022-08-12T15:48:20.668Z,101995.03
2022-08-12T15:58:22.146Z,101980.59
2022-08-12T16:08:28.537Z,101981.31
2022-08-12T16:18:33.912Z,101968.75
2022-08-12T16:28:36.728Z,101963.78
2022-08-12T16:38:40.317Z,101947.88
2022-08-12T16:48:47.531Z,101951.34
2022-08-12T16:58:48.943Z,101947.81
2022-08-12T17:08:56.286Z,101945.56
2022-08-12T17:19:03.347Z,101939.81
2022-08-12T17:29:16.524Z,101929.94
2022-08-12T17:39:18.392Z,101941.25
2022-08-12T17:50:02.191Z,101943.78
2022-08-12T17:59:47.695Z,101966.22
2022-08-12T18:09:51.503Z,101972.22
2022-08-12T18:20:04.832Z,101959.22
2022-08-12T18:30:09.568Z,101979.44
2022-08-12T18:40:12.843Z,101983.84
2022-08-12T18:50:14.360Z,101983.78
2022-08-12T19:00:17.059Z,101996.28
2022-08-12T19:10:23.237Z,102004.50
2022-08-12T19:20:25.433Z,102021.69
2022-08-12T19:30:30.217Z,102023.31
2022-08-12T19:40:34.945Z,102021.59
2022-08-12T19:50:39.862Z,102021.47
2022-08-12T20:00:43.928Z,102028.41
2022-08-12T20:10:56.896Z,102029.66
2022-08-12T20:21:24.375Z,102039.09
2022-08-12T20:31:26.402Z,102032.25
2022-08-12T20:41:32.999Z,102042.34
2022-08-12T20:51:40.744Z,102038.22
2022-08-12T21:01:56.493Z,102024.41
2022-08-12T21:12:04.687Z,102031.53
2022-08-12T21:22:26.069Z,102037.22
2022-08-12T21:32:36.234Z,102036.69
2022-08-12T21:42:40.989Z,102043.91
2022-08-12T21:52:43.636Z,102048.88
2022-08-12T22:02:50.711Z,102047.22
2022-08-12T22:12:52.135Z,102045.78
2022-08-12T22:22:55.921Z,102046.66
2022-08-12T22:32:57.561Z,102048.75
2022-08-12T22:43:00.086Z,102058.66
2022-08-12T22:53:07.243Z,102055.25
2022-08-12T23:03:12.131Z,102052.78
2022-08-12T23:13:43.152Z,102056.66
2022-08-12T23:23:57.588Z,102054.91
2022-08-12T23:34:07.736Z,102054.66
2022-08-12T23:44:09.148Z,102057.53
2022-08-12T23:54:10.620Z,102053.31
